createdAt,value
2022-09-16T00:00:09.878Z,99377.55
2022-09-16T00:03:07.622Z,99378.08
2022-09-16T00:05:57.758Z,99376.36
2022-09-16T00:08:47.897Z,99371.04
2022-09-16T00:11:37.964Z,99371.23
2022-09-16T00:14:30.146Z,99377.32
2022-09-16T00:17:20.060Z,99379.98
2022-09-16T00:20:10.490Z,99379.33
2022-09-16T00:23:00.755Z,99387.55
2022-09-16T00:25:53.938Z,99387.55
2022-09-16T00:28:44.204Z,99391.94
2022-09-16T00:31:35.349Z,99391.94
2022-09-16T00:34:25.366Z,99400.16
2022-09-16T00:37:15.328Z,99393.41
2022-09-16T00:40:06.922Z,99394.42
2022-09-16T00:42:56.959Z,99393.69
2022-09-16T00:45:49.806Z,99389.11
2022-09-16T00:48:39.780Z,99390.55
2022-09-16T00:51:31.385Z,99388.91
2022-09-16T00:54:21.416Z,99389.48
2022-09-16T00:57:12.309Z,99390.05
2022-09-16T01:00:04.112Z,99391.60
2022-09-16T01:02:54.382Z,99396.54
2022-09-16T01:05:44.875Z,99399.84
2022-09-16T01:08:34.871Z,99399.55
2022-09-16T01:11:25.479Z,99405.96
2022-09-16T01:14:33.995Z,99406.15
2022-09-16T01:17:33.742Z,99408.08
2022-09-16T01:20:59.793Z,99405.30
2022-09-16T01:24:29.296Z,99403.41
2022-09-16T01:27:58.431Z,99403.54
2022-09-16T01:31:03.580Z,99401.04
2022-09-16T01:33:58.080Z,99398.55
2022-09-16T01:36:51.315Z,99398.37
2022-09-16T01:39:49.681Z,99398.48
2022-09-16T01:42:46.280Z,99397.96
2022-09-16T01:45:37.842Z,99401.73
2022-09-16T01:48:32.541Z,99398.05
2022-09-16T01:51:25.753Z,99398.62
2022-09-16T01:54:20.700Z,99397.08
2022-09-16T01:57:13.707Z,99397.23
2022-09-16T02:00:07.250Z,99394.46
2022-09-16T02:02:59.400Z,99395.61
2022-09-16T02:05:53.628Z,99392.25
2022-09-16T02:08:46.533Z,99397.12
2022-09-16T02:11:37.245Z,99404.08
2022-09-16T02:14:29.233Z,99407.92
2022-09-16T02:17:21.305Z,99412.39
2022-09-16T02:20:14.009Z,99415.44
2022-09-16T02:23:06.737Z,99415.66
2022-09-16T02:25:56.803Z,99414.39
2022-09-16T02:28:48.404Z,99413.79
2022-09-16T02:31:38.518Z,99410.91
2022-09-16T02:34:31.385Z,99408.33
2022-09-16T02:37:26.729Z,99410.59
2022-09-16T02:40:20.102Z,99412.15
2022-09-16T02:43:10.088Z,99414.02
2022-09-16T02:46:08.006Z,99418.38
2022-09-16T02:49:02.982Z,99418.27
2022-09-16T02:51:58.598Z,99421.27
2022-09-16T02:54:51.582Z,99418.11
2022-09-16T02:57:41.661Z,99423.64
2022-09-16T03:00:31.609Z,99421.30
2022-09-16T03:03:21.593Z,99418.48
2022-09-16T03:06:17.959Z,99423.14
2022-09-16T03:09:10.572Z,99424.73
2022-09-16T03:12:36.777Z,99426.02
2022-09-16T03:15:50.186Z,99425.23
2022-09-16T03:18:50.144Z,99423.22
2022-09-16T03:21:46.672Z,99424.29
2022-09-16T03:24:46.055Z,99426.45
2022-09-16T03:27:40.934Z,99424.48
2022-09-16T03:30:33.673Z,99429.26
2022-09-16T03:33:27.854Z,99427.94
2022-09-16T03:36:20.549Z,99431.67
2022-09-16T03:39:11.094Z,99430.93
2022-09-16T03:42:03.103Z,99432.16
2022-09-16T03:44:53.384Z,99428.44
2022-09-16T03:47:43.729Z,99427.62
2022-09-16T03:50:34.003Z,99425.73
2022-09-16T03:53:24.189Z,99422.08
2022-09-16T03:56:14.648Z,99432.13
2022-09-16T03:59:04.646Z,99433.72
2022-09-16T04:01:55.623Z,99430.49
2022-09-16T04:04:46.304Z,99433.70
2022-09-16T04:07:36.240Z,99436.93
2022-09-16T04:10:26.764Z,99439.25
2022-09-16T04:13:16.697Z,99442.96
2022-09-16T04:16:07.269Z,99443.07
2022-09-16T04:18:57.313Z,99442.41
2022-09-16T04:21:47.343Z,99443.69
2022-09-16T04:24:37.481Z,99447.34
2022-09-16T04:27:27.779Z,99448.64
2022-09-16T04:30:19.879Z,99452.53
2022-09-16T04:33:10.860Z,99452.66
2022-09-16T04:36:09.704Z,99449.34
2022-09-16T04:38:59.965Z,99450.49
2022-09-16T04:41:50.363Z,99450.91
2022-09-16T04:44:40.765Z,99451.81
2022-09-16T04:47:30.970Z,99453.98
2022-09-16T04:50:21.329Z,99459.13
2022-09-16T04:53:11.700Z,99458.86
2022-09-16T04:56:07.665Z,99458.00
2022-09-16T04:59:00.506Z,99460.98
2022-09-16T05:01:50.639Z,99461.95
2022-09-16T05:04:40.681Z,99463.16
2022-09-16T05:07:30.712Z,99465.55
2022-09-16T05:10:20.810Z,99462.02
2022-09-16T05:13:10.976Z,99466.43
2022-09-16T05:16:07.610Z,99461.36
2022-09-16T05:18:59.296Z,99459.19
2022-09-16T05:21:49.614Z,99462.02
2022-09-16T05:24:39.552Z,99460.13
2022-09-16T05:27:32.355Z,99455.67
2022-09-16T05:30:25.883Z,99452.15
2022-09-16T05:33:17.009Z,99454.40
2022-09-16T05:36:10.325Z,99456.56
2022-09-16T05:42:10.757Z,99453.13
2022-09-16T05:45:00.852Z,99450.47
2022-09-16T05:47:53.683Z,99453.00
2022-09-16T05:50:43.650Z,99453.01
2022-09-16T05:53:34.621Z,99457.31
2022-09-16T05:56:25.873Z,99454.29
2022-09-16T05:59:16.355Z,99459.15
2022-09-16T06:02:06.627Z,99459.80
2022-09-16T06:04:59.812Z,99461.20
2022-09-16T06:07:50.287Z,99461.73
2022-09-16T06:10:41.585Z,99462.33
2022-09-16T06:13:32.297Z,99462.66
2022-09-16T06:16:23.286Z,99455.78
2022-09-16T06:19:14.875Z,99459.91
2022-09-16T06:22:05.357Z,99461.14
2022-09-16T06:24:55.301Z,99457.57
2022-09-16T06:27:45.389Z,99459.52
2022-09-16T06:30:35.602Z,99463.02
2022-09-16T06:33:27.760Z,99456.59
2022-09-16T06:36:20.579Z,99451.91
2022-09-16T06:39:13.904Z,99456.21
2022-09-16T06:42:05.406Z,99457.77
2022-09-16T06:45:07.422Z,99455.16
2022-09-16T06:48:01.252Z,99458.40
2022-09-16T06:50:57.520Z,99457.66
2022-09-16T06:53:52.612Z,99462.98
2022-09-16T06:56:44.119Z,99456.23
2022-09-16T06:59:38.962Z,99459.40
2022-09-16T07:02:32.648Z,99461.17
2022-09-16T07:05:27.309Z,99467.92
2022-09-16T07:08:20.202Z,99468.86
2022-09-16T07:11:13.080Z,99467.48
2022-09-16T07:14:04.494Z,99465.06
2022-09-16T07:16:54.704Z,99467.98
2022-09-16T07:19:45.323Z,99469.98
2022-09-16T07:22:35.585Z,99468.47
2022-09-16T07:25:26.584Z,99479.05
2022-09-16T07:28:17.399Z,99475.45
2022-09-16T07:31:10.289Z,99475.90
2022-09-16T07:34:04.372Z,99472.14
2022-09-16T07:36:56.523Z,99467.88
2022-09-16T07:39:46.696Z,99471.86
2022-09-16T07:42:36.779Z,99470.23
2022-09-16T07:45:27.024Z,99460.29
2022-09-16T07:48:17.093Z,99460.39
2022-09-16T07:51:09.958Z,99465.79
2022-09-16T07:54:01.742Z,99462.34
2022-09-16T07:56:52.019Z,99463.45
2022-09-16T07:59:42.293Z,99464.39
2022-09-16T08:02:32.413Z,99463.17
2022-09-16T08:05:25.870Z,99468.20
2022-09-16T08:08:16.141Z,99461.73
2022-09-16T08:11:07.497Z,99464.67
2022-09-16T08:13:59.532Z,99459.27
2022-09-16T08:16:50.895Z,99458.98
2022-09-16T08:19:47.623Z,99461.65
2022-09-16T08:22:38.811Z,99465.46
2022-09-16T08:25:30.527Z,99464.89
2022-09-16T08:28:20.962Z,99464.32
2022-09-16T08:31:11.162Z,99458.37
2022-09-16T08:34:02.893Z,99453.59
2022-09-16T08:36:53.182Z,99453.98
2022-09-16T08:39:43.517Z,99457.63
2022-09-16T08:42:53.677Z,99454.42
2022-09-16T08:45:49.501Z,99463.36
2022-09-16T08:48:47.400Z,99464.80
2022-09-16T08:51:37.377Z,99460.41
2022-09-16T08:54:31.238Z,99462.94
2022-09-16T08:57:22.813Z,99460.73
2022-09-16T09:00:17.526Z,99456.75
2022-09-16T09:03:16.510Z,99459.20
2022-09-16T09:06:17.041Z,99463.73
2022-09-16T09:09:16.769Z,99464.09
2022-09-16T09:12:10.987Z,99464.35
2022-09-16T09:15:28.286Z,99462.34
2022-09-16T09:18:29.910Z,99463.69
2022-09-16T09:21:27.536Z,99453.70
2022-09-16T09:24:31.937Z,99452.23
2022-09-16T09:27:26.795Z,99456.39
2022-09-16T09:30:20.445Z,99460.08
2022-09-16T09:33:44.823Z,99466.55
2022-09-16T09:36:48.145Z,99459.42
2022-09-16T09:39:46.431Z,99464.82
2022-09-16T09:42:39.086Z,99464.45
2022-09-16T09:45:31.687Z,99466.53
2022-09-16T09:48:24.416Z,99462.77
2022-09-16T09:51:21.039Z,99461.13
2022-09-16T09:54:25.710Z,99466.98
2022-09-16T09:57:27.607Z,99463.73
2022-09-16T10:00:20.897Z,99471.52
2022-09-16T10:03:14.521Z,99477.01
2022-09-16T10:06:06.864Z,99471.23
2022-09-16T10:08:58.851Z,99470.33
2022-09-16T10:11:55.113Z,99466.34
2022-09-16T10:14:50.086Z,99464.99
2022-09-16T10:17:50.023Z,99466.02
2022-09-16T10:20:43.928Z,99465.61
2022-09-16T10:23:34.894Z,99467.16
2022-09-16T10:26:26.582Z,99466.83
2022-09-16T10:29:19.223Z,99475.30
2022-09-16T10:32:12.218Z,99472.39
2022-09-16T10:35:09.961Z,99473.15
2022-09-16T10:38:04.209Z,99473.98
2022-09-16T10:40:57.323Z,99473.39
2022-09-16T10:43:51.229Z,99470.41
2022-09-16T10:46:52.008Z,99473.67
2022-09-16T10:49:51.402Z,99473.80
2022-09-16T10:52:44.876Z,99463.90
2022-09-16T10:55:37.501Z,99466.38
2022-09-16T10:58:30.337Z,99466.27
2022-09-16T11:01:42.567Z,99472.55
2022-09-16T11:04:57.181Z,99468.27
2022-09-16T11:07:52.528Z,99468.17
2022-09-16T11:10:48.308Z,99473.73
2022-09-16T11:13:46.383Z,99476.02
2022-09-16T11:17:02.636Z,99480.52
2022-09-16T11:20:14.078Z,99467.20
2022-09-16T11:23:09.249Z,99474.09
2022-09-16T11:26:06.443Z,99466.91
2022-09-16T11:29:08.994Z,99467.84
2022-09-16T11:32:03.167Z,99470.41
2022-09-16T11:35:22.269Z,99476.77
2022-09-16T11:38:21.484Z,99470.71
2022-09-16T11:41:16.072Z,99460.21
2022-09-16T11:44:27.131Z,99458.33
2022-09-16T11:47:42.048Z,99449.54
2022-09-16T11:50:44.683Z,99441.99
2022-09-16T11:53:59.938Z,99446.45
2022-09-16T11:56:52.927Z,99444.45
2022-09-16T11:59:48.322Z,99441.21
2022-09-16T12:02:44.288Z,99443.07
2022-09-16T12:05:39.401Z,99444.16
2022-09-16T12:08:31.450Z,99446.30
2022-09-16T12:11:26.533Z,99446.23
2022-09-16T12:14:20.380Z,99440.86
2022-09-16T12:17:14.564Z,99441.77
2022-09-16T12:20:10.830Z,99444.34
2022-09-16T12:23:05.976Z,99441.36
2022-09-16T12:26:02.539Z,99434.70
2022-09-16T12:28:56.050Z,99436.61
2022-09-16T12:31:47.852Z,99429.45
2022-09-16T12:34:42.623Z,99423.02
2022-09-16T12:37:39.096Z,99417.38
2022-09-16T12:40:31.234Z,99411.40
2022-09-16T12:43:36.369Z,99411.07
2022-09-16T12:47:00.027Z,99408.48
2022-09-16T12:50:31.433Z,99405.54
2022-09-16T12:54:02.176Z,99407.63
2022-09-16T12:57:22.439Z,99406.75
2022-09-16T13:00:21.364Z,99407.98
2022-09-16T13:03:16.136Z,99403.66
2022-09-16T13:06:14.656Z,99403.95
2022-09-16T13:09:22.388Z,99404.81
2022-09-16T13:12:39.611Z,99397.03
2022-09-16T13:15:40.839Z,99408.38
2022-09-16T13:18:51.526Z,99414.40
2022-09-16T13:21:44.377Z,99414.80
2022-09-16T13:24:38.082Z,99414.08
2022-09-16T13:27:33.907Z,99415.75
2022-09-16T13:30:33.677Z,99415.42
2022-09-16T13:33:36.340Z,99419.52
2022-09-16T13:36:33.408Z,99420.68
2022-09-16T13:39:32.059Z,99434.89
2022-09-16T13:42:24.211Z,99437.75
2022-09-16T13:45:34.481Z,99432.90
2022-09-16T13:48:25.649Z,99433.06
2022-09-16T13:51:18.258Z,99436.62
2022-09-16T13:54:29.607Z,99426.70
2022-09-16T13:57:52.331Z,99426.50
2022-09-16T14:00:58.355Z,99429.05
2022-09-16T14:03:55.951Z,99417.34
2022-09-16T14:06:59.487Z,99415.90
2022-09-16T14:09:59.326Z,99413.65
2022-09-16T14:12:59.863Z,99413.12
2022-09-16T14:15:51.489Z,99413.16
2022-09-16T14:18:49.083Z,99412.42
2022-09-16T14:21:39.081Z,99415.09
2022-09-16T14:24:36.552Z,99409.92
2022-09-16T14:27:33.525Z,99406.65
2022-09-16T14:30:23.601Z,99394.70
2022-09-16T14:33:14.111Z,99403.41
2022-09-16T14:36:11.477Z,99396.33
2022-09-16T14:39:04.104Z,99394.10
2022-09-16T14:41:56.732Z,99392.62
2022-09-16T14:44:49.539Z,99389.95
2022-09-16T14:47:51.038Z,99392.98
2022-09-16T14:50:45.622Z,99392.09
2022-09-16T14:53:38.169Z,99390.17
2022-09-16T14:56:31.670Z,99394.11
2022-09-16T14:59:36.852Z,99389.98
2022-09-16T15:07:11.908Z,99387.27
2022-09-16T15:10:05.469Z,99387.16
2022-09-16T15:13:00.288Z,99391.59
2022-09-16T15:15:56.540Z,99386.45
2022-09-16T15:18:57.780Z,99382.98
2022-09-16T15:21:48.450Z,99383.29
2022-09-16T15:24:40.600Z,99385.90
2022-09-16T15:27:34.811Z,99383.79
2022-09-16T15:30:29.205Z,99381.79
2022-09-16T15:33:35.967Z,99376.48
2022-09-16T15:36:48.445Z,99378.05
2022-09-16T15:39:39.473Z,99381.36
2022-09-16T15:42:29.990Z,99380.85
2022-09-16T15:45:21.488Z,99380.17
2022-09-16T15:48:17.181Z,99379.03
2022-09-16T15:51:10.082Z,99376.66
2022-09-16T15:54:05.330Z,99372.98
2022-09-16T15:57:01.597Z,99372.15
2022-09-16T16:00:11.949Z,99370.58
2022-09-16T16:03:07.459Z,99369.27
2022-09-16T16:06:05.950Z,99368.17
2022-09-16T16:08:59.487Z,99366.58
2022-09-16T16:11:56.971Z,99367.24
2022-09-16T16:14:47.629Z,99364.07
2022-09-16T16:17:40.742Z,99361.20
2022-09-16T16:20:33.607Z,99362.70
2022-09-16T16:23:25.592Z,99364.58
2022-09-16T16:26:19.365Z,99365.27
2022-09-16T16:29:13.922Z,99361.47
2022-09-16T16:32:12.774Z,99367.45
2022-09-16T16:35:08.291Z,99365.63
2022-09-16T16:37:58.994Z,99359.90
2022-09-16T16:40:52.285Z,99358.27
2022-09-16T16:43:42.886Z,99365.69
2022-09-16T16:46:33.901Z,99370.71
2022-09-16T16:49:24.375Z,99374.54
2022-09-16T16:52:14.869Z,99369.33
2022-09-16T16:55:10.245Z,99365.33
2022-09-16T16:58:00.701Z,99365.80
2022-09-16T17:00:53.506Z,99368.59
2022-09-16T17:03:47.917Z,99371.02
2022-09-16T17:06:40.322Z,99372.11
2022-09-16T17:09:31.218Z,99372.43
2022-09-16T17:12:25.790Z,99377.15
2022-09-16T17:15:18.098Z,99372.34
2022-09-16T17:18:08.620Z,99373.61
2022-09-16T17:21:04.361Z,99372.38
2022-09-16T17:23:57.979Z,99374.05
2022-09-16T17:26:49.332Z,99377.52
2022-09-16T17:29:53.129Z,99376.02
2022-09-16T17:32:45.266Z,99378.55
2022-09-16T17:35:39.767Z,99376.16
2022-09-16T17:38:32.179Z,99377.59
2022-09-16T17:41:26.665Z,99379.16
2022-09-16T17:44:18.391Z,99385.77
2022-09-16T17:47:10.003Z,99380.62
2022-09-16T17:50:04.762Z,99381.45
2022-09-16T17:53:01.383Z,99384.70
2022-09-16T17:55:55.553Z,99382.85
2022-09-16T17:58:48.087Z,99379.67
2022-09-16T18:01:41.404Z,99380.73
2022-09-16T18:04:32.037Z,99380.77
2022-09-16T18:07:28.276Z,99374.63
2022-09-16T18:10:19.844Z,99376.84
2022-09-16T18:13:10.465Z,99381.90
2022-09-16T18:16:05.334Z,99383.95
2022-09-16T18:18:57.140Z,99384.77
2022-09-16T18:21:48.028Z,99385.98
2022-09-16T18:24:39.108Z,99386.39
2022-09-16T18:27:29.230Z,99384.18
2022-09-16T18:30:19.378Z,99383.90
2022-09-16T18:33:09.582Z,99384.30
2022-09-16T18:36:04.185Z,99386.59
2022-09-16T18:38:54.371Z,99385.33
2022-09-16T18:41:45.031Z,99389.91
2022-09-16T18:44:38.956Z,99385.44
2022-09-16T18:47:29.048Z,99389.52
2022-09-16T18:50:19.229Z,99390.59
2022-09-16T18:53:09.261Z,99392.30
2022-09-16T18:56:00.848Z,99393.16
2022-09-16T18:59:17.087Z,99396.69
2022-09-16T19:02:03.329Z,99394.97
2022-09-16T19:04:56.652Z,99396.72
2022-09-16T19:07:46.827Z,99393.58
2022-09-16T19:10:38.628Z,99391.44
2022-09-16T19:13:28.775Z,99391.60
2022-09-16T19:16:19.494Z,99394.79
2022-09-16T19:19:14.851Z,99397.45
2022-09-16T19:22:05.431Z,99395.86
2022-09-16T19:24:55.449Z,99396.95
2022-09-16T19:27:46.258Z,99394.48
2022-09-16T19:30:36.542Z,99394.47
2022-09-16T19:33:26.676Z,99394.05
2022-09-16T19:36:19.119Z,99393.52
2022-09-16T19:39:09.441Z,99395.33
2022-09-16T19:42:02.973Z,99394.88
2022-09-16T19:44:53.518Z,99393.81
2022-09-16T19:47:43.520Z,99397.13
2022-09-16T19:50:33.792Z,99390.41
2022-09-16T19:53:24.231Z,99387.42
2022-09-16T19:56:15.719Z,99386.52
2022-09-16T19:59:07.097Z,99387.91
2022-09-16T20:01:57.825Z,99386.00
2022-09-16T20:04:47.864Z,99382.97
2022-09-16T20:07:39.269Z,99378.87
2022-09-16T20:10:34.299Z,99377.43
2022-09-16T20:13:24.659Z,99382.44
2022-09-16T20:16:15.251Z,99384.77
2022-09-16T20:19:07.579Z,99386.65
2022-09-16T20:21:57.669Z,99386.27
2022-09-16T20:25:01.039Z,99386.98
2022-09-16T20:27:57.653Z,99390.52
2022-09-16T20:30:48.343Z,99392.67
2022-09-16T20:33:38.281Z,99390.66
2022-09-16T20:36:30.380Z,99392.95
2022-09-16T20:39:21.588Z,99392.25
2022-09-16T20:42:12.342Z,99394.21
2022-09-16T20:45:03.372Z,99393.57
2022-09-16T20:47:53.330Z,99394.79
2022-09-16T20:50:43.239Z,99399.05
2022-09-16T20:53:33.632Z,99398.36
2022-09-16T20:56:23.692Z,99402.95
2022-09-16T20:59:15.421Z,99403.77
2022-09-16T21:02:08.272Z,99403.91
2022-09-16T21:05:03.287Z,99401.86
2022-09-16T21:07:53.199Z,99405.02
2022-09-16T21:10:43.285Z,99411.27
2022-09-16T21:13:33.604Z,99412.21
2022-09-16T21:16:24.338Z,99409.64
2022-09-16T21:19:14.472Z,99410.08
2022-09-16T21:22:04.719Z,99412.29
2022-09-16T21:24:54.807Z,99413.23
2022-09-16T21:27:44.828Z,99414.16
2022-09-16T21:30:34.739Z,99414.00
2022-09-16T21:33:25.568Z,99410.65
2022-09-16T21:36:15.541Z,99410.90
2022-09-16T21:39:06.077Z,99405.79
2022-09-16T21:41:56.049Z,99408.20
2022-09-16T21:44:46.476Z,99412.79
2022-09-16T21:47:36.713Z,99413.37
2022-09-16T21:50:26.696Z,99414.14
2022-09-16T21:53:16.634Z,99418.48
2022-09-16T21:56:09.059Z,99417.52
2022-09-16T21:58:59.148Z,99418.96
2022-09-16T22:01:49.541Z,99414.82
2022-09-16T22:04:39.993Z,99408.64
2022-09-16T22:07:29.910Z,99404.92
2022-09-16T22:10:20.891Z,99403.94
2022-09-16T22:13:10.812Z,99403.83
2022-09-16T22:16:01.752Z,99404.77
2022-09-16T22:18:51.799Z,99406.73
2022-09-16T22:21:45.973Z,99403.98
2022-09-16T22:24:35.938Z,99403.75
2022-09-16T22:27:27.445Z,99403.27
2022-09-16T22:30:17.815Z,99400.28
2022-09-16T22:33:08.045Z,99398.73
2022-09-16T22:35:58.780Z,99394.21
2022-09-16T22:38:49.168Z,99392.25
2022-09-16T22:41:39.154Z,99392.70
2022-09-16T22:44:29.073Z,99388.55
2022-09-16T22:47:19.004Z,99386.69
2022-09-16T22:50:10.500Z,99385.50
2022-09-16T22:53:00.408Z,99381.01
2022-09-16T22:55:54.399Z,99381.41
2022-09-16T22:58:44.625Z,99384.41
2022-09-16T23:01:36.623Z,99381.21
2022-09-16T23:04:29.860Z,99382.69
2022-09-16T23:07:20.426Z,99383.47
2022-09-16T23:10:11.616Z,99380.33
2022-09-16T23:13:01.538Z,99374.73
2022-09-16T23:15:53.200Z,99371.41
2022-09-16T23:18:43.791Z,99368.75
2022-09-16T23:21:33.767Z,99370.55
2022-09-16T23:24:24.168Z,99366.91
2022-09-16T23:27:14.077Z,99361.84
2022-09-16T23:30:05.100Z,99360.52
2022-09-16T23:32:54.995Z,99355.86
2022-09-16T23:35:49.100Z,99355.86
2022-09-16T23:38:40.198Z,99350.58
2022-09-16T23:41:31.453Z,99349.56
2022-09-16T23:44:21.964Z,99353.81
2022-09-16T23:47:12.236Z,99347.27
2022-09-16T23:50:02.116Z,99342.21
2022-09-16T23:52:52.021Z,99347.90
2022-09-16T23:55:45.077Z,99344.30
2022-09-16T23:58:35.337Z,99348.08
